Time;durP1;ratioP1;P1;durP2;ratioP2;P2;SDS_P1;SDS_P2;PMS_P1;PMS_P2;Temp;Humidity;BMP_temperature;BMP_pressure;BME280_temperature;BME280_humidity;BME280_pressure;Samples;Min_cycle;Max_cycle;Signal;HPM_P1;HPM_P2
2022/10/31 00:01:18;;;;;;;17.20;10.32;;;13.30;99.90;;;;;;5051490;28;20051;-79
2022/10/31 00:03:44;;;;;;;19.25;11.40;;;13.20;99.90;;;;;;5057651;28;20065;-78
2022/10/31 00:06:09;;;;;;;12.35;8.07;;;13.20;99.90;;;;;;5042569;28;20226;-79
2022/10/31 00:08:35;;;;;;;17.90;11.43;;;13.10;99.90;;;;;;5043356;28;20617;-78
2022/10/31 00:11:01;;;;;;;18.98;10.68;;;13.10;99.90;;;;;;5053370;28;20049;-79
2022/10/31 00:13:27;;;;;;;13.48;10.32;;;13.00;99.90;;;;;;5047421;28;20390;-78
2022/10/31 00:15:52;;;;;;;18.48;10.82;;;13.10;99.90;;;;;;5050745;28;20078;-79
2022/10/31 00:18:18;;;;;;;19.50;10.35;;;13.00;99.90;;;;;;5055401;28;20606;-79
2022/10/31 00:20:43;;;;;;;17.17;10.90;;;13.00;99.90;;;;;;5041099;28;20931;-77
2022/10/31 00:23:10;;;;;;;14.45;10.63;;;12.90;99.90;;;;;;5043682;28;20562;-79
2022/10/31 00:25:39;;;;;;;14.35;10.45;;;12.90;99.90;;;;;;5041614;28;20141;-79
2022/10/31 00:28:06;;;;;;;15.63;11.00;;;12.90;99.90;;;;;;5042389;28;20581;-79
2022/10/31 00:30:33;;;;;;;18.65;10.50;;;12.80;99.90;;;;;;5044985;28;20052;-76
2022/10/31 00:32:58;;;;;;;15.07;11.27;;;12.80;99.90;;;;;;5045828;28;20040;-79
2022/10/31 00:35:24;;;;;;;21.48;12.50;;;12.80;99.90;;;;;;5060034;28;20055;-77
2022/10/31 00:37:51;;;;;;;18.58;12.60;;;12.80;99.90;;;;;;5050558;28;20117;-79
2022/10/31 00:40:17;;;;;;;17.77;10.80;;;12.70;99.90;;;;;;5049413;28;20798;-77
2022/10/31 00:42:42;;;;;;;18.33;10.18;;;12.70;99.90;;;;;;5042366;28;20053;-79
2022/10/31 00:45:11;;;;;;;17.08;11.18;;;12.70;99.90;;;;;;5058513;28;20182;-78
2022/10/31 00:47:37;;;;;;;15.88;11.25;;;12.70;99.90;;;;;;5047877;28;20049;-79
2022/10/31 00:50:06;;;;;;;19.55;11.32;;;12.70;99.90;;;;;;5047024;28;20075;-78
2022/10/31 00:52:32;;;;;;;16.83;9.88;;;12.60;99.90;;;;;;5050964;28;20148;-77
2022/10/31 00:54:58;;;;;;;20.15;12.07;;;12.70;99.90;;;;;;5052379;28;20062;-78
2022/10/31 00:57:23;;;;;;;14.80;10.93;;;12.60;99.90;;;;;;5044178;28;20065;-79
2022/10/31 00:59:49;;;;;;;12.73;9.95;;;12.60;99.90;;;;;;5053091;28;20594;-77
2022/10/31 01:02:16;;;;;;;19.35;12.95;;;12.60;99.90;;;;;;5046291;28;20109;-78
2022/10/31 01:04:41;;;;;;;16.88;11.18;;;12.60;99.90;;;;;;5050076;28;20060;-79
2022/10/31 01:07:07;;;;;;;14.68;10.82;;;12.60;99.90;;;;;;5054801;28;20045;-78
2022/10/31 01:09:33;;;;;;;13.68;9.15;;;12.60;99.90;;;;;;5056027;28;20647;-79
2022/10/31 01:11:58;;;;;;;18.35;11.35;;;12.50;99.90;;;;;;5058961;28;20149;-77
2022/10/31 01:14:24;;;;;;;16.77;11.90;;;12.60;99.90;;;;;;5050816;28;20386;-78
2022/10/31 01:16:50;;;;;;;17.58;10.75;;;12.60;99.90;;;;;;5053909;28;20047;-78
2022/10/31 01:19:15;;;;;;;14.32;10.45;;;12.50;99.90;;;;;;5060365;28;20044;-79
2022/10/31 01:21:41;;;;;;;15.10;10.55;;;12.60;99.90;;;;;;5043272;28;20051;-79
2022/10/31 01:24:07;;;;;;;18.13;11.75;;;12.50;99.90;;;;;;5056974;28;20055;-78
2022/10/31 01:26:33;;;;;;;15.93;11.27;;;12.50;99.90;;;;;;5048174;28;20179;-78
2022/10/31 01:29:01;;;;;;;15.43;10.63;;;12.50;99.90;;;;;;5045429;28;20048;-76
2022/10/31 01:31:30;;;;;;;16.05;10.38;;;12.50;99.90;;;;;;5047106;28;20059;-78
2022/10/31 01:33:56;;;;;;;15.50;9.43;;;12.50;99.90;;;;;;5051359;28;20610;-76
2022/10/31 01:36:31;;;;;;;12.60;10.65;;;12.50;99.90;;;;;;5041427;28;20971;-78
2022/10/31 01:39:00;;;;;;;17.08;11.50;;;12.50;99.90;;;;;;5049356;28;20044;-78
2022/10/31 01:41:29;;;;;;;16.80;10.00;;;12.50;99.90;;;;;;5046192;28;20114;-77
2022/10/31 01:44:00;;;;;;;13.20;9.05;;;12.60;99.90;;;;;;5042108;28;20055;-80
2022/10/31 01:46:40;;;;;;;19.90;11.45;;;12.60;99.90;;;;;;5045517;28;20044;-77
2022/10/31 01:49:17;;;;;;;17.70;11.60;;;12.60;99.90;;;;;;5045695;28;20404;-78
2022/10/31 01:51:53;;;;;;;18.50;10.18;;;12.60;99.90;;;;;;5041660;28;20130;-78
2022/10/31 01:54:23;;;;;;;16.20;10.95;;;12.60;99.90;;;;;;5047943;28;20151;-77
2022/10/31 01:56:52;;;;;;;16.83;11.80;;;12.60;99.90;;;;;;5051266;28;20126;-78
2022/10/31 01:59:20;;;;;;;13.02;8.60;;;12.60;99.90;;;;;;5040381;28;20056;-78
2022/10/31 02:01:50;;;;;;;14.10;8.45;;;12.50;99.90;;;;;;5046038;28;20052;-78
2022/10/31 02:04:16;;;;;;;14.25;9.80;;;12.60;99.90;;;;;;5057619;28;20462;-78
2022/10/31 02:06:51;;;;;;;12.27;8.57;;;12.50;99.90;;;;;;5051458;28;20099;-78
2022/10/31 02:09:23;;;;;;;13.65;9.32;;;12.50;99.90;;;;;;5055827;28;20036;-78
2022/10/31 02:11:52;;;;;;;13.75;8.70;;;12.40;99.90;;;;;;5046814;28;20059;-77
2022/10/31 02:14:20;;;;;;;11.73;7.70;;;12.40;99.90;;;;;;5051866;28;20123;-79
2022/10/31 02:16:46;;;;;;;14.45;9.20;;;12.40;99.90;;;;;;5052518;28;20048;-78
2022/10/31 02:19:22;;;;;;;13.50;9.77;;;12.40;99.90;;;;;;5047997;28;20447;-78
2022/10/31 02:21:53;;;;;;;15.95;9.38;;;12.30;99.90;;;;;;5046096;28;20055;-78
2022/10/31 02:24:38;;;;;;;16.30;10.68;;;12.30;99.90;;;;;;5047730;28;20055;-76
2022/10/31 02:27:31;;;;;;;10.93;8.20;;;12.30;99.90;;;;;;5052616;28;20238;-78
2022/10/31 02:30:06;;;;;;;12.52;9.25;;;12.30;99.90;;;;;;5054538;28;20070;-79
2022/10/31 02:32:35;;;;;;;12.95;8.85;;;12.20;99.90;;;;;;5055769;28;20210;-78
2022/10/31 02:35:38;;;;;;;11.63;9.00;;;12.20;99.90;;;;;;5058465;28;20072;-79
2022/10/31 02:38:23;;;;;;;15.88;9.63;;;12.20;99.90;;;;;;5045178;28;20052;-78
2022/10/31 02:41:17;;;;;;;14.98;9.90;;;12.20;99.90;;;;;;5051865;28;20076;-78
2022/10/31 02:43:56;;;;;;;17.38;10.15;;;12.10;99.90;;;;;;5046174;28;20076;-79
2022/10/31 02:46:33;;;;;;;15.82;10.02;;;12.10;99.90;;;;;;5048062;28;20048;-77
2022/10/31 02:49:05;;;;;;;15.25;10.43;;;12.10;99.90;;;;;;5053871;28;20302;-78
2022/10/31 02:51:31;;;;;;;14.05;10.32;;;12.00;99.90;;;;;;5046681;28;20539;-79
2022/10/31 02:53:57;;;;;;;12.23;9.00;;;12.00;99.90;;;;;;5058553;28;20175;-78
2022/10/31 02:56:22;;;;;;;15.20;10.95;;;11.90;99.90;;;;;;5042341;28;20068;-79
2022/10/31 02:59:00;;;;;;;13.18;9.15;;;11.90;99.90;;;;;;5040052;28;20915;-79
2022/10/31 03:02:08;;;;;;;17.33;10.80;;;11.90;99.90;;;;;;5044588;28;20142;-78
2022/10/31 03:05:10;;;;;;;16.90;11.77;;;11.80;99.90;;;;;;5000649;28;20054;-78
2022/10/31 03:08:13;;;;;;;15.00;11.55;;;11.80;99.90;;;;;;5041551;28;20781;-79
2022/10/31 03:10:53;;;;;;;14.90;10.65;;;11.70;99.90;;;;;;5030726;28;20049;-77
2022/10/31 03:13:37;;;;;;;13.30;10.82;;;11.70;99.90;;;;;;5051653;28;20787;-78
2022/10/31 03:16:10;;;;;;;16.40;11.48;;;11.70;99.90;;;;;;5044514;28;20146;-79
2022/10/31 03:18:44;;;;;;;14.15;10.73;;;11.60;99.90;;;;;;5046820;28;20084;-77
2022/10/31 03:21:16;;;;;;;14.05;11.07;;;11.60;99.90;;;;;;5046012;28;20049;-79
2022/10/31 03:23:44;;;;;;;15.93;10.00;;;11.60;99.90;;;;;;5049183;28;20105;-77
2022/10/31 03:26:12;;;;;;;17.55;12.45;;;11.50;99.90;;;;;;5051664;28;20056;-79
2022/10/31 03:28:43;;;;;;;15.38;10.30;;;11.60;99.90;;;;;;5038849;28;20045;-79
2022/10/31 03:31:12;;;;;;;15.15;9.95;;;11.50;99.90;;;;;;5038848;28;20037;-79
2022/10/31 03:33:40;;;;;;;17.23;12.43;;;11.60;99.90;;;;;;5038821;28;20631;-79
2022/10/31 03:36:09;;;;;;;14.88;10.90;;;11.50;99.90;;;;;;5039161;28;20245;-79
2022/10/31 03:38:35;;;;;;;15.40;10.85;;;11.50;99.90;;;;;;5038464;28;20697;-79
2022/10/31 03:41:05;;;;;;;14.27;10.77;;;11.50;99.90;;;;;;5041674;28;20148;-79
2022/10/31 03:43:36;;;;;;;11.13;9.70;;;11.50;99.90;;;;;;5043503;28;20045;-79
2022/10/31 03:46:03;;;;;;;18.80;11.70;;;11.40;99.90;;;;;;5048910;28;20102;-80
2022/10/31 03:48:29;;;;;;;13.75;9.90;;;11.50;99.90;;;;;;5050617;28;20259;-79
2022/10/31 03:51:16;;;;;;;15.15;11.20;;;11.40;99.90;;;;;;5051977;28;20497;-78
2022/10/31 03:54:08;;;;;;;16.08;11.10;;;11.30;99.90;;;;;;5045116;28;20523;-78
2022/10/31 03:56:40;;;;;;;14.75;10.32;;;11.30;99.90;;;;;;5048519;28;20775;-79
2022/10/31 03:59:14;;;;;;;14.10;10.32;;;11.30;99.90;;;;;;5049379;28;20078;-78
2022/10/31 04:01:46;;;;;;;15.35;12.32;;;11.30;99.90;;;;;;5042958;28;20049;-78
2022/10/31 04:04:12;;;;;;;17.85;12.18;;;11.20;99.90;;;;;;5048005;28;20045;-79
2022/10/31 04:06:41;;;;;;;14.38;11.18;;;11.20;99.90;;;;;;5053157;28;20126;-78
2022/10/31 04:09:08;;;;;;;17.45;12.23;;;11.20;99.90;;;;;;5051720;28;20045;-79
2022/10/31 04:11:43;;;;;;;14.18;10.95;;;11.20;99.90;;;;;;5049490;28;20082;-79
2022/10/31 04:14:10;;;;;;;13.23;11.02;;;11.10;99.90;;;;;;5050530;28;20044;-79
2022/10/31 04:16:41;;;;;;;14.52;10.40;;;11.10;99.90;;;;;;5044047;28;20130;-79
2022/10/31 04:19:06;;;;;;;11.57;9.05;;;11.10;99.90;;;;;;5046453;28;20051;-79
2022/10/31 04:21:32;;;;;;;16.48;10.02;;;11.00;99.90;;;;;;5046287;28;20056;-79
2022/10/31 04:23:58;;;;;;;15.95;11.73;;;11.00;99.90;;;;;;5052437;28;20036;-79
2022/10/31 04:26:23;;;;;;;16.25;9.98;;;11.00;99.90;;;;;;5059865;28;20166;-78
2022/10/31 04:28:49;;;;;;;15.70;11.30;;;11.00;99.90;;;;;;5045305;28;20945;-78
2022/10/31 04:31:15;;;;;;;10.38;8.55;;;10.90;99.90;;;;;;5042662;28;20068;-78
2022/10/31 04:33:40;;;;;;;14.43;11.35;;;10.80;99.90;;;;;;5043629;28;20115;-79
2022/10/31 04:36:07;;;;;;;14.23;11.52;;;10.80;99.90;;;;;;5040189;28;20060;-79
2022/10/31 04:38:32;;;;;;;14.48;11.50;;;10.80;99.90;;;;;;5043777;28;20048;-78
2022/10/31 04:40:58;;;;;;;12.98;10.07;;;10.70;99.90;;;;;;5050786;28;20048;-78
2022/10/31 04:43:24;;;;;;;13.48;8.85;;;10.70;99.90;;;;;;5042166;28;20060;-78
2022/10/31 04:45:50;;;;;;;11.52;8.73;;;10.80;99.90;;;;;;5041674;28;20041;-79
2022/10/31 04:48:16;;;;;;;15.43;10.50;;;10.80;99.90;;;;;;5045543;28;20103;-77
2022/10/31 04:50:42;;;;;;;12.43;10.57;;;10.70;99.90;;;;;;5042528;28;20037;-79
2022/10/31 04:53:08;;;;;;;13.60;10.45;;;10.70;99.90;;;;;;5049220;28;20052;-79
2022/10/31 04:55:35;;;;;;;11.18;8.05;;;10.70;99.90;;;;;;5054827;28;20518;-78
2022/10/31 04:58:02;;;;;;;13.75;9.25;;;10.70;99.90;;;;;;5042204;28;20045;-79
2022/10/31 05:00:27;;;;;;;17.50;11.98;;;10.60;99.90;;;;;;5043527;28;20449;-78
2022/10/31 05:02:56;;;;;;;16.38;12.05;;;10.60;99.90;;;;;;5053255;28;20127;-79
2022/10/31 05:05:28;;;;;;;15.93;10.13;;;10.60;99.90;;;;;;5051998;28;20498;-78
2022/10/31 05:07:54;;;;;;;10.82;9.23;;;10.60;99.90;;;;;;5043806;28;20052;-79
2022/10/31 05:10:22;;;;;;;13.30;10.27;;;10.50;99.90;;;;;;5044478;28;20056;-79
2022/10/31 05:12:53;;;;;;;9.82;8.05;;;10.60;99.90;;;;;;5046915;28;20052;-79
2022/10/31 05:15:21;;;;;;;17.33;12.02;;;10.60;99.90;;;;;;5045115;28;20044;-77
2022/10/31 05:17:47;;;;;;;18.70;12.32;;;10.50;99.90;;;;;;5048730;28;20460;-79
2022/10/31 05:20:14;;;;;;;18.67;10.60;;;10.40;99.90;;;;;;5045089;28;20091;-80
2022/10/31 05:22:44;;;;;;;22.50;9.43;;;10.40;99.90;;;;;;5049469;28;20075;-78
2022/10/31 05:25:10;;;;;;;14.50;10.02;;;10.40;99.90;;;;;;5049827;28;20056;-79
2022/10/31 05:27:42;;;;;;;12.65;10.38;;;10.30;99.90;;;;;;5052064;28;20167;-79
2022/10/31 05:30:09;;;;;;;18.48;11.07;;;10.30;99.90;;;;;;5050690;28;20048;-79
2022/10/31 05:32:43;;;;;;;14.00;10.38;;;10.30;99.90;;;;;;5042805;28;20049;-79
2022/10/31 05:35:12;;;;;;;12.40;10.02;;;10.20;99.90;;;;;;5046196;28;20914;-78
2022/10/31 05:37:38;;;;;;;14.60;10.32;;;10.20;99.90;;;;;;5051089;28;20059;-79
2022/10/31 05:40:06;;;;;;;18.58;11.52;;;10.20;99.90;;;;;;5045636;28;20165;-78
2022/10/31 05:42:32;;;;;;;12.48;9.65;;;10.10;99.90;;;;;;5048052;28;20048;-79
2022/10/31 05:44:58;;;;;;;13.70;10.05;;;10.20;99.90;;;;;;5050654;28;20049;-79
2022/10/31 05:47:24;;;;;;;15.73;9.95;;;10.20;99.90;;;;;;5050487;28;20045;-79
2022/10/31 05:49:50;;;;;;;14.85;10.85;;;10.20;99.90;;;;;;5049051;28;20045;-79
2022/10/31 05:52:16;;;;;;;12.18;9.07;;;10.10;99.90;;;;;;5042697;28;20529;-80
2022/10/31 05:54:41;;;;;;;11.18;9.35;;;10.10;99.90;;;;;;5050763;28;20063;-79
2022/10/31 05:57:07;;;;;;;10.32;8.68;;;10.10;99.90;;;;;;5048284;28;20045;-78
2022/10/31 05:59:33;;;;;;;18.27;11.13;;;10.10;99.90;;;;;;5056794;28;20805;-75
2022/10/31 06:01:58;;;;;;;14.32;10.10;;;10.00;99.90;;;;;;5052745;28;20056;-78
2022/10/31 06:04:24;;;;;;;12.85;10.07;;;10.00;99.90;;;;;;5046850;28;20049;-78
2022/10/31 06:06:50;;;;;;;13.07;10.32;;;10.00;99.90;;;;;;5048503;28;20041;-79
2022/10/31 06:09:15;;;;;;;12.55;9.05;;;10.00;99.90;;;;;;5050057;28;20067;-78
2022/10/31 06:11:41;;;;;;;14.80;9.57;;;10.00;99.90;;;;;;5052657;28;20052;-80
2022/10/31 06:14:07;;;;;;;13.93;9.90;;;10.00;99.90;;;;;;5052586;28;20091;-80
2022/10/31 06:16:33;;;;;;;11.98;10.52;;;10.00;99.90;;;;;;5047875;28;20048;-78
2022/10/31 06:18:58;;;;;;;9.57;7.32;;;10.00;99.90;;;;;;5038835;28;20044;-79
2022/10/31 06:21:24;;;;;;;15.02;10.50;;;10.00;99.90;;;;;;5047777;28;20056;-79
2022/10/31 06:23:50;;;;;;;15.23;11.57;;;10.00;99.90;;;;;;5049448;28;20397;-78
2022/10/31 06:26:16;;;;;;;13.45;11.48;;;10.00;99.90;;;;;;5047137;28;20076;-80
2022/10/31 06:28:42;;;;;;;16.05;11.13;;;10.00;99.90;;;;;;5052784;28;20056;-81
2022/10/31 06:31:07;;;;;;;13.07;10.45;;;10.10;99.90;;;;;;5037868;28;20049;-80
2022/10/31 06:33:34;;;;;;;12.82;10.52;;;10.10;99.90;;;;;;5040575;28;20250;-81
2022/10/31 06:36:00;;;;;;;10.32;8.32;;;10.10;99.90;;;;;;5035890;28;20041;-78
2022/10/31 06:38:26;;;;;;;7.88;6.63;;;10.10;99.90;;;;;;5053455;28;20036;-79
2022/10/31 06:40:53;;;;;;;8.18;7.07;;;10.00;99.90;;;;;;5044989;28;20887;-80
2022/10/31 06:43:19;;;;;;;9.05;6.93;;;10.00;99.90;;;;;;5039747;28;20056;-80
2022/10/31 06:45:45;;;;;;;6.90;4.30;;;9.90;99.90;;;;;;5037077;28;20053;-79
2022/10/31 06:48:10;;;;;;;10.50;6.10;;;9.90;99.90;;;;;;5042950;28;20052;-80
2022/10/31 06:50:36;;;;;;;6.63;6.00;;;9.90;99.90;;;;;;5038349;28;20045;-81
2022/10/31 06:53:03;;;;;;;7.55;4.15;;;9.90;99.90;;;;;;5040475;28;20146;-81
2022/10/31 06:55:29;;;;;;;9.50;6.63;;;9.90;99.90;;;;;;5054850;28;20131;-82
2022/10/31 06:57:57;;;;;;;8.38;7.05;;;9.90;99.90;;;;;;5045947;28;20135;-80
2022/10/31 07:00:24;;;;;;;6.85;5.97;;;10.00;99.90;;;;;;5044982;28;20052;-80
2022/10/31 07:03:00;;;;;;;6.35;5.75;;;10.00;99.90;;;;;;5049759;28;20049;-81
2022/10/31 07:05:27;;;;;;;6.78;5.28;;;10.00;99.90;;;;;;5046506;28;20632;-81
2022/10/31 07:07:54;;;;;;;8.57;6.25;;;10.00;99.90;;;;;;5039506;28;20088;-80
2022/10/31 07:10:20;;;;;;;5.45;4.60;;;10.00;99.90;;;;;;5044278;28;20099;-80
2022/10/31 07:12:46;;;;;;;7.13;5.97;;;10.00;99.90;;;;;;5051760;28;20052;-79
2022/10/31 07:15:11;;;;;;;6.68;5.63;;;10.00;99.90;;;;;;5044947;28;20091;-79
2022/10/31 07:17:37;;;;;;;7.22;6.07;;;10.00;99.90;;;;;;5043198;28;20049;-78
2022/10/31 07:20:03;;;;;;;9.30;6.28;;;10.00;99.90;;;;;;5049195;28;20056;-79
2022/10/31 07:22:36;;;;;;;7.50;6.20;;;10.00;99.90;;;;;;5040133;28;20059;-79
2022/10/31 07:25:02;;;;;;;6.28;4.70;;;10.00;99.90;;;;;;5043083;28;20066;-79
2022/10/31 07:27:27;;;;;;;14.75;6.72;;;9.80;99.90;;;;;;5051515;28;20483;-78
2022/10/31 07:29:53;;;;;;;37.35;8.82;;;9.90;99.90;;;;;;5042400;28;20041;-79
2022/10/31 07:32:19;;;;;;;25.00;7.63;;;9.80;99.90;;;;;;5046163;28;20745;-79
2022/10/31 07:34:44;;;;;;;91.80;13.00;;;9.80;99.90;;;;;;5038411;28;20045;-77
2022/10/31 07:37:10;;;;;;;23.67;8.32;;;9.80;99.90;;;;;;5042349;28;20060;-80
2022/10/31 07:39:35;;;;;;;78.85;12.35;;;9.90;99.90;;;;;;5040616;28;20044;-79
2022/10/31 07:42:01;;;;;;;61.75;10.70;;;9.90;99.90;;;;;;5045632;28;20072;-80
2022/10/31 07:44:27;;;;;;;23.70;8.02;;;9.90;99.90;;;;;;5048932;28;20206;-80
2022/10/31 07:46:52;;;;;;;13.35;8.60;;;10.00;99.90;;;;;;5044892;28;20045;-78
2022/10/31 07:49:18;;;;;;;11.55;7.47;;;10.00;99.90;;;;;;5049696;28;20048;-81
2022/10/31 07:51:44;;;;;;;13.18;7.40;;;10.10;99.90;;;;;;5039656;28;20126;-80
2022/10/31 07:54:09;;;;;;;12.05;7.60;;;10.10;99.90;;;;;;5038054;28;20148;-80
2022/10/31 07:56:35;;;;;;;15.70;6.78;;;10.20;99.90;;;;;;5044507;28;20123;-80
2022/10/31 07:59:01;;;;;;;12.13;7.65;;;10.30;99.90;;;;;;5038047;28;20476;-80
2022/10/31 08:01:26;;;;;;;8.32;5.30;;;10.40;99.90;;;;;;5039846;28;20523;-79
2022/10/31 08:03:52;;;;;;;9.90;7.28;;;10.40;99.90;;;;;;5047904;28;20426;-76
2022/10/31 08:06:17;;;;;;;8.90;7.75;;;10.60;99.90;;;;;;5044324;28;20439;-77
2022/10/31 08:08:43;;;;;;;11.15;7.90;;;10.70;99.90;;;;;;5050819;28;20103;-77
2022/10/31 08:11:09;;;;;;;12.25;7.47;;;10.70;99.90;;;;;;5044731;28;20170;-78
2022/10/31 08:13:34;;;;;;;8.02;7.20;;;10.70;99.90;;;;;;5041386;28;20102;-78
2022/10/31 08:16:04;;;;;;;6.78;6.07;;;10.70;99.90;;;;;;5046442;28;20051;-77
2022/10/31 08:18:30;;;;;;;7.82;7.05;;;10.70;99.90;;;;;;5036885;28;20087;-75
2022/10/31 08:20:55;;;;;;;9.77;7.32;;;10.70;99.90;;;;;;5041449;28;20041;-77
2022/10/31 08:23:21;;;;;;;7.32;6.55;;;10.80;99.90;;;;;;5041464;28;20048;-79
2022/10/31 08:25:47;;;;;;;8.38;6.40;;;10.90;99.90;;;;;;5048226;28;20044;-80
2022/10/31 08:28:13;;;;;;;8.05;7.30;;;11.00;99.90;;;;;;5052642;28;20424;-80
2022/10/31 08:30:40;;;;;;;9.32;8.43;;;11.10;99.90;;;;;;5053248;28;20874;-78
2022/10/31 08:33:10;;;;;;;11.55;8.35;;;11.20;99.90;;;;;;5042400;28;20048;-80
2022/10/31 08:35:36;;;;;;;8.15;7.03;;;11.40;99.90;;;;;;5050974;28;20083;-78
2022/10/31 08:38:02;;;;;;;10.32;8.60;;;11.50;99.90;;;;;;5046593;28;20481;-77
2022/10/31 08:40:30;;;;;;;11.15;8.07;;;11.70;99.90;;;;;;5046321;28;20052;-79
2022/10/31 08:42:57;;;;;;;9.48;8.57;;;11.80;99.90;;;;;;5052474;28;20051;-79
2022/10/31 08:45:23;;;;;;;10.32;8.88;;;11.90;99.90;;;;;;5042678;28;20049;-79
2022/10/31 08:47:48;;;;;;;9.63;8.63;;;12.00;99.90;;;;;;5050242;28;20220;-79
2022/10/31 08:50:14;;;;;;;10.88;8.73;;;12.20;99.90;;;;;;5048151;28;20859;-78
2022/10/31 08:52:40;;;;;;;14.00;10.15;;;12.30;99.90;;;;;;5045894;28;20049;-78
2022/10/31 08:55:06;;;;;;;12.90;9.48;;;12.40;99.90;;;;;;5045766;28;20064;-79
2022/10/31 08:57:31;;;;;;;12.45;9.50;;;12.50;99.90;;;;;;5051351;28;20887;-77
2022/10/31 08:59:57;;;;;;;10.88;8.98;;;12.60;99.90;;;;;;5049015;28;20041;-78
2022/10/31 09:02:23;;;;;;;11.70;8.80;;;12.70;99.90;;;;;;5045971;28;20049;-79
2022/10/31 09:04:48;;;;;;;13.43;10.15;;;12.90;99.90;;;;;;5047691;28;20071;-75
2022/10/31 09:07:14;;;;;;;14.57;10.18;;;12.80;99.90;;;;;;5055073;28;20056;-77
2022/10/31 09:09:39;;;;;;;10.93;9.40;;;12.90;99.90;;;;;;5050458;28;20048;-76
2022/10/31 09:12:05;;;;;;;10.35;9.00;;;13.00;99.90;;;;;;5045883;28;20048;-77
2022/10/31 09:14:31;;;;;;;13.80;11.10;;;13.00;99.90;;;;;;5046000;28;20051;-78
2022/10/31 09:16:56;;;;;;;12.70;10.73;;;13.10;99.90;;;;;;5039687;28;20041;-77
2022/10/31 09:19:22;;;;;;;14.68;10.82;;;13.10;99.90;;;;;;5043694;28;20087;-76
2022/10/31 09:21:52;;;;;;;15.52;11.00;;;13.20;99.90;;;;;;5041994;28;20500;-76
2022/10/31 09:24:17;;;;;;;14.95;11.52;;;13.30;99.90;;;;;;5052865;28;20089;-77
2022/10/31 09:26:43;;;;;;;15.68;11.45;;;13.40;99.90;;;;;;5046978;28;20040;-76
2022/10/31 09:29:09;;;;;;;16.02;10.63;;;13.50;99.90;;;;;;5046324;28;20140;-78
2022/10/31 09:31:35;;;;;;;15.75;11.70;;;13.50;99.90;;;;;;5049170;28;20087;-76
2022/10/31 09:34:01;;;;;;;16.42;10.20;;;13.60;99.90;;;;;;5047028;28;20040;-75
2022/10/31 09:36:26;;;;;;;17.13;11.07;;;13.70;99.90;;;;;;5043987;28;20041;-77
2022/10/31 09:38:52;;;;;;;14.82;11.50;;;13.70;99.90;;;;;;5042538;28;21281;-76
2022/10/31 09:41:45;;;;;;;17.60;11.40;;;13.80;99.90;;;;;;5040977;28;20092;-76
2022/10/31 09:44:46;;;;;;;16.45;12.02;;;13.80;99.90;;;;;;5051559;28;20052;-75
2022/10/31 09:47:45;;;;;;;19.88;12.25;;;14.00;99.90;;;;;;5047578;28;20102;-76
2022/10/31 09:50:14;;;;;;;23.27;12.07;;;14.00;99.90;;;;;;5052111;28;20072;-76
2022/10/31 09:52:44;;;;;;;16.45;11.63;;;14.10;99.90;;;;;;5041165;28;20045;-79
2022/10/31 09:55:43;;;;;;;14.82;10.82;;;14.10;99.90;;;;;;5051643;28;20060;-75
2022/10/31 09:58:24;;;;;;;19.15;11.73;;;14.20;99.90;;;;;;5042448;28;20830;-75
2022/10/31 10:00:51;;;;;;;17.30;11.05;;;14.20;99.90;;;;;;5048186;28;20040;-75
2022/10/31 10:04:14;;;;;;;16.42;11.57;;;14.20;99.90;;;;;;5056385;28;20044;-76
2022/10/31 10:06:46;;;;;;;18.38;10.88;;;14.30;99.90;;;;;;4976067;28;20315;-75
2022/10/31 10:09:12;;;;;;;19.05;9.73;;;14.30;99.90;;;;;;4977182;28;20089;-75
2022/10/31 10:12:07;;;;;;;17.83;11.15;;;14.40;99.90;;;;;;5023503;28;20152;-75
2022/10/31 10:15:21;;;;;;;13.80;10.65;;;14.50;99.90;;;;;;5056409;28;20048;-75
2022/10/31 10:17:51;;;;;;;16.23;10.32;;;14.60;99.90;;;;;;5009649;28;20112;-75
2022/10/31 10:20:31;;;;;;;15.88;10.07;;;14.60;99.90;;;;;;5049689;28;20041;-75
2022/10/31 10:23:08;;;;;;;19.50;10.18;;;14.70;99.90;;;;;;5052040;28;20056;-76
2022/10/31 10:25:42;;;;;;;14.10;9.35;;;14.80;99.90;;;;;;5042681;28;20802;-75
2022/10/31 10:28:13;;;;;;;;;;;14.80;99.90;;;;;;5042739;28;20083;-75
2022/10/31 10:30:46;;;;;;;13.02;9.70;;;14.70;99.90;;;;;;5042262;28;19924;-75
2022/10/31 10:33:33;;;;;;;13.18;9.02;;;14.80;99.90;;;;;;5042403;28;20068;-76
2022/10/31 10:36:03;;;;;;;17.33;9.68;;;14.80;99.90;;;;;;5039739;28;20052;-75
2022/10/31 10:38:45;;;;;;;15.32;9.52;;;14.80;99.90;;;;;;5049903;28;20700;-76
2022/10/31 10:41:17;;;;;;;13.82;8.65;;;14.90;99.90;;;;;;5052040;28;20040;-76
2022/10/31 10:43:43;;;;;;;12.52;8.30;;;15.00;99.90;;;;;;5042704;28;20048;-76
2022/10/31 10:49:26;;;;;;;9.27;7.43;;;15.10;99.90;;;;;;5038824;28;20236;-76
2022/10/31 10:52:16;;;;;;;12.05;7.75;;;15.00;99.90;;;;;;5050651;28;20056;-76
2022/10/31 10:54:41;;;;;;;11.30;8.95;;;15.10;99.90;;;;;;5047081;28;20056;-76
2022/10/31 10:57:28;;;;;;;11.55;7.60;;;15.10;99.90;;;;;;5054116;28;20052;-76
2022/10/31 10:59:54;;;;;;;13.13;8.35;;;15.20;99.90;;;;;;5039471;28;20056;-75
2022/10/31 11:02:30;;;;;;;13.00;7.97;;;15.40;99.90;;;;;;5038738;28;20045;-76
2022/10/31 11:05:00;;;;;;;10.15;7.60;;;15.50;99.90;;;;;;5042142;28;20149;-75
2022/10/31 11:07:36;;;;;;;11.07;7.28;;;15.50;99.90;;;;;;5050637;28;20052;-76
2022/10/31 11:10:13;;;;;;;12.23;7.07;;;15.60;99.90;;;;;;5039599;28;20400;-76
2022/10/31 11:12:41;;;;;;;12.60;8.32;;;15.60;99.90;;;;;;5043499;28;20153;-76
2022/10/31 11:15:37;;;;;;;10.32;7.05;;;15.60;99.90;;;;;;5052570;28;20527;-76
2022/10/31 11:18:04;;;;;;;10.65;6.72;;;15.60;99.90;;;;;;5041721;28;20060;-76
2022/10/31 11:20:34;;;;;;;12.60;5.68;;;15.60;99.90;;;;;;5043306;28;20152;-76
2022/10/31 11:23:15;;;;;;;8.40;5.20;;;15.60;99.90;;;;;;5047781;28;20045;-76
2022/10/31 11:25:49;;;;;;;10.38;6.28;;;15.70;99.90;;;;;;5040717;28;20047;-76
2022/10/31 11:28:14;;;;;;;12.40;5.72;;;15.60;99.90;;;;;;5033928;28;20061;-76
2022/10/31 11:30:47;;;;;;;8.80;6.40;;;15.70;99.90;;;;;;5050890;28;20040;-76
2022/10/31 11:33:32;;;;;;;9.15;6.07;;;15.70;99.90;;;;;;5050009;28;20098;-77
2022/10/31 11:35:59;;;;;;;9.43;5.82;;;15.80;99.90;;;;;;5053597;28;20090;-76
2022/10/31 11:38:49;;;;;;;8.18;5.35;;;15.80;99.90;;;;;;5056080;28;20052;-76
2022/10/31 11:41:29;;;;;;;10.95;6.72;;;15.90;99.90;;;;;;5045258;28;20091;-76
2022/10/31 11:43:59;;;;;;;10.48;5.50;;;15.90;99.90;;;;;;5043227;28;20056;-76
2022/10/31 11:46:33;;;;;;;8.73;6.47;;;16.00;99.90;;;;;;5048798;28;20440;-76
2022/10/31 11:48:59;;;;;;;10.45;5.63;;;16.10;99.90;;;;;;5042712;28;20191;-76
2022/10/31 11:51:34;;;;;;;6.18;4.85;;;16.20;99.90;;;;;;5049222;28;20048;-76
2022/10/31 11:54:03;;;;;;;6.82;5.30;;;16.40;99.90;;;;;;5041679;28;20091;-76
2022/10/31 11:56:40;;;;;;;8.75;5.40;;;16.40;99.90;;;;;;5055703;28;20060;-76
2022/10/31 11:59:20;;;;;;;9.32;4.95;;;16.50;99.90;;;;;;5055533;28;20052;-77
2022/10/31 12:01:49;;;;;;;10.35;6.95;;;16.50;99.90;;;;;;5046665;28;20131;-77
2022/10/31 12:04:16;;;;;;;10.77;7.38;;;16.60;99.90;;;;;;5049311;28;20634;-76
2022/10/31 12:06:47;;;;;;;8.85;7.18;;;16.60;99.90;;;;;;5049512;28;20059;-77
2022/10/31 12:09:22;;;;;;;14.52;7.97;;;16.50;99.90;;;;;;5048886;28;20080;-76
2022/10/31 12:12:22;;;;;;;15.25;7.35;;;16.60;99.90;;;;;;5058501;28;20399;-76
2022/10/31 12:15:03;;;;;;;11.32;7.95;;;16.60;99.90;;;;;;5061177;28;20076;-76
2022/10/31 12:17:52;;;;;;;12.27;7.35;;;16.60;99.90;;;;;;5048670;28;20102;-76
2022/10/31 12:20:29;;;;;;;12.75;8.38;;;16.60;99.90;;;;;;5059383;28;20974;-77
2022/10/31 12:23:29;;;;;;;12.90;8.52;;;16.60;99.90;;;;;;5050762;28;20048;-76
2022/10/31 12:26:27;;;;;;;13.82;7.80;;;16.60;99.90;;;;;;5042347;28;20056;-76
2022/10/31 12:29:19;;;;;;;9.95;7.13;;;16.60;99.90;;;;;;5055471;28;20045;-76
2022/10/31 12:32:06;;;;;;;8.13;6.38;;;16.50;99.90;;;;;;5053217;28;20755;-77
2022/10/31 12:35:05;;;;;;;11.82;6.32;;;16.50;99.90;;;;;;5052119;28;20072;-77
2022/10/31 12:37:38;;;;;;;9.57;5.93;;;16.40;99.90;;;;;;5054999;28;20083;-76
2022/10/31 12:40:26;;;;;;;12.70;5.95;;;16.40;99.90;;;;;;5044203;28;20143;-76
2022/10/31 12:43:33;;;;;;;10.73;6.45;;;16.40;99.90;;;;;;5048177;28;20059;-76
2022/10/31 12:46:01;;;;;;;8.52;6.13;;;16.30;99.90;;;;;;5036529;28;20055;-76
2022/10/31 12:48:51;;;;;;;9.70;6.18;;;16.30;99.90;;;;;;5046423;28;20067;-77
2022/10/31 12:51:29;;;;;;;10.50;6.10;;;16.30;99.90;;;;;;5045461;28;20079;-76
2022/10/31 12:54:19;;;;;;;6.90;5.13;;;16.20;99.90;;;;;;5049479;28;20883;-76
2022/10/31 12:56:58;;;;;;;9.07;5.40;;;16.10;99.90;;;;;;5050046;28;20063;-76
2022/10/31 12:59:39;;;;;;;8.77;5.50;;;16.10;99.90;;;;;;5045892;28;20044;-77